Time;durP1;ratioP1;P1;durP2;ratioP2;P2;SDS_P1;SDS_P2;PMS_P1;PMS_P2;Temp;Humidity;BMP_temperature;BMP_pressure;BME280_temperature;BME280_humidity;BME280_pressure;Samples;Min_cycle;Max_cycle;Signal;HPM_P1;HPM_P2
2021/10/20 00:00:08;;;;;;;;;;;16.30;99.90;16.60;100062.00;;;;340105;28;95251;-91
2021/10/20 00:00:22;;;;;;;;;;;16.30;99.90;16.60;100064.00;;;;343456;28;83396;-91
2021/10/20 00:00:34;;;;;;;;;;;16.30;99.90;16.50;100069.00;;;;340068;28;96378;-90
2021/10/20 00:00:46;;;;;;;;;;;16.30;99.90;16.50;100066.00;;;;340803;28;82460;-91
2021/10/20 00:00:58;;;;;;;;;;;16.30;99.90;16.60;100063.00;;;;337202;28;94854;-90
2021/10/20 00:01:10;;;;;;;;;;;16.30;99.90;16.50;100066.00;;;;339304;28;82565;-91
2021/10/20 00:01:21;;;;;;;;;;;16.30;99.90;16.50;100059.00;;;;338654;28;96838;-91
2021/10/20 00:01:34;;;;;;;;;;;16.30;99.90;16.50;100058.00;;;;340661;28;83346;-90
2021/10/20 00:01:46;;;;;;;;;;;16.30;99.90;16.60;100055.00;;;;341032;28;96364;-91
2021/10/20 00:01:58;;;;;;;;;;;16.30;99.90;16.50;100058.00;;;;337951;28;83381;-91
2021/10/20 00:02:11;;;;;;;;;;;16.30;99.90;16.50;100063.00;;;;339786;28;95507;-91
2021/10/20 00:02:23;;;;;;;;;;;16.30;99.90;16.50;100058.00;;;;338128;28;82592;-91
2021/10/20 00:02:35;;;;;;;;;;;16.30;99.90;16.50;100056.00;;;;340067;28;96721;-90
2021/10/20 00:02:49;;;;;;;;;;;16.30;99.90;16.60;100049.00;;;;340679;28;83599;-90
2021/10/20 00:03:01;;;;;;;;;;;16.30;99.90;16.60;100053.00;;;;336106;28;96522;-90
2021/10/20 00:03:18;;;;;;;;;;;16.30;99.90;16.60;100053.00;;;;338052;28;83526;-91
2021/10/20 00:03:30;;;;;;;;;;;16.30;99.90;16.60;100051.00;;;;340055;28;94790;-91
2021/10/20 00:03:42;;;;;;;;;;;16.30;99.90;16.60;100051.00;;;;340802;28;83420;-90
2021/10/20 00:03:55;;;;;;;;;;;16.30;99.90;16.50;100052.00;;;;338592;28;97505;-91
2021/10/20 00:04:06;;;;;;;;;;;16.30;99.90;16.50;100048.00;;;;339371;28;82443;-90
2021/10/20 00:04:19;;;;;;;;;;;16.30;99.90;16.50;100054.00;;;;340070;28;95460;-90
2021/10/20 00:04:31;;;;;;;;;;;16.30;99.90;16.60;100052.00;;;;339553;28;82463;-90
2021/10/20 00:04:43;;;;;;;;;;;16.30;99.90;16.60;100060.00;;;;338682;28;96783;-90
2021/10/20 00:04:55;;;;;;;;;;;16.30;99.90;16.50;100053.00;;;;339435;28;83481;-90
2021/10/20 00:05:07;;;;;;;;;;;16.30;99.90;16.50;100054.00;;;;341202;28;94678;-91
2021/10/20 00:05:19;;;;;;;;;;;16.30;99.90;16.50;100061.00;;;;340610;28;82614;-91
2021/10/20 00:05:31;;;;;;;;;;;16.30;99.90;16.60;100057.00;;;;339957;28;96636;-91
2021/10/20 00:05:42;;;;;;;;;;;16.30;99.90;16.50;100057.00;;;;339273;28;83423;-90
2021/10/20 00:05:54;;;;;;;;;;;16.30;99.90;16.50;100050.00;;;;338658;28;97954;-90
2021/10/20 00:06:06;;;;;;;;;;;16.30;99.90;16.50;100046.00;;;;339376;28;83430;-91
2021/10/20 00:06:18;;;;;;;;;;;16.30;99.90;16.60;100051.00;;;;340021;28;95577;-91
2021/10/20 00:06:29;;;;;;;;;;;16.30;99.90;16.60;100049.00;;;;340844;28;82494;-90
2021/10/20 00:06:41;;;;;;;;;;;16.30;99.90;16.60;100046.00;;;;339829;28;94490;-90
2021/10/20 00:06:54;;;;;;;;;;;16.30;99.90;16.70;100049.00;;;;340512;28;82587;-91
2021/10/20 00:07:05;;;;;;;;;;;16.30;99.90;16.60;100051.00;;;;339606;28;94698;-91
2021/10/20 00:07:17;;;;;;;;;;;16.30;99.90;16.60;100052.00;;;;341966;28;82554;-90
2021/10/20 00:07:29;;;;;;;;;;;16.40;99.90;16.60;100049.00;;;;342633;28;95308;-91
2021/10/20 00:07:41;;;;;;;;;;;16.40;99.90;16.60;100044.00;;;;339523;28;83359;-90
2021/10/20 00:07:52;;;;;;;;;;;16.30;99.90;16.60;100042.00;;;;342658;28;96227;-90
2021/10/20 00:08:07;;;;;;;;;;;16.30;99.90;16.70;100042.00;;;;339549;28;83332;-90
2021/10/20 00:08:19;;;;;;;;;;;16.40;99.90;16.60;100042.00;;;;340078;28;95221;-90
2021/10/20 00:08:31;;;;;;;;;;;16.40;99.90;16.60;100048.00;;;;342003;28;83556;-91
2021/10/20 00:08:42;;;;;;;;;;;16.40;99.90;16.60;100048.00;;;;340150;28;93036;-90
2021/10/20 00:08:54;;;;;;;;;;;16.40;99.90;16.60;100042.00;;;;337942;28;83362;-91
2021/10/20 00:09:06;;;;;;;;;;;16.40;99.90;16.60;100039.00;;;;339735;28;96001;-91
2021/10/20 00:09:18;;;;;;;;;;;16.40;99.90;16.60;100039.00;;;;339575;28;82636;-90
2021/10/20 00:09:29;;;;;;;;;;;16.40;99.90;16.60;100040.00;;;;338620;28;95770;-91
2021/10/20 00:09:41;;;;;;;;;;;16.40;99.90;16.60;100043.00;;;;339467;28;83402;-92
2021/10/20 00:09:53;;;;;;;;;;;16.40;99.90;16.60;100041.00;;;;341321;28;96142;-90
2021/10/20 00:10:05;;;;;;;;;;;16.40;99.90;16.60;100049.00;;;;340644;28;82668;-90
2021/10/20 00:10:18;;;;;;;;;;;16.40;99.90;16.60;100052.00;;;;341228;28;95417;-90
2021/10/20 00:10:30;;;;;;;;;;;16.40;99.90;16.60;100044.00;;;;341965;28;83602;-90
2021/10/20 00:10:42;;;;;;;;;;;16.40;99.90;16.60;100052.00;;;;340072;28;95512;-90
2021/10/20 00:10:53;;;;;;;;;;;16.40;99.90;16.60;100032.00;;;;341815;28;82649;-90
2021/10/20 00:11:05;;;;;;;;;;;16.40;99.90;16.60;100037.00;;;;339825;28;94434;-90
2021/10/20 00:11:17;;;;;;;;;;;16.40;99.90;16.50;100048.00;;;;342023;28;83479;-91
2021/10/20 00:11:29;;;;;;;;;;;16.40;99.90;16.50;100042.00;;;;339578;28;94375;-90
2021/10/20 00:11:41;;;;;;;;;;;16.40;99.90;16.50;100036.00;;;;340621;28;82582;-90
2021/10/20 00:11:53;;;;;;;;;;;16.30;99.90;16.60;100035.00;;;;341067;28;96757;-90
2021/10/20 00:12:05;;;;;;;;;;;16.40;99.90;16.60;100044.00;;;;340787;28;83516;-90
2021/10/20 00:12:17;;;;;;;;;;;16.30;99.90;16.60;100037.00;;;;339838;28;95614;-91
2021/10/20 00:12:29;;;;;;;;;;;16.30;99.90;16.60;100038.00;;;;339506;28;83465;-91
2021/10/20 00:12:41;;;;;;;;;;;16.40;99.90;16.60;100037.00;;;;339835;28;95560;-91
2021/10/20 00:12:52;;;;;;;;;;;16.40;99.90;16.50;100036.00;;;;340733;28;82548;-91
2021/10/20 00:13:04;;;;;;;;;;;16.40;99.90;16.50;100040.00;;;;338680;28;96413;-88
2021/10/20 00:13:16;;;;;;;;;;;16.30;99.90;16.50;100033.00;;;;338193;28;83324;-91
2021/10/20 00:13:28;;;;;;;;;;;16.30;99.90;16.50;100042.00;;;;339918;28;95582;-90
2021/10/20 00:13:41;;;;;;;;;;;16.30;99.90;16.50;100037.00;;;;342237;28;83492;-90
2021/10/20 00:13:52;;;;;;;;;;;16.30;99.90;16.50;100043.00;;;;341111;28;96495;-92
2021/10/20 00:14:04;;;;;;;;;;;16.40;99.90;16.60;100038.00;;;;340598;28;83314;-91
2021/10/20 00:14:16;;;;;;;;;;;16.30;99.90;16.60;100041.00;;;;337218;28;94720;-90
2021/10/20 00:14:28;;;;;;;;;;;16.40;99.90;16.60;100041.00;;;;342012;28;82619;-91
2021/10/20 00:14:40;;;;;;;;;;;16.40;99.90;16.60;100041.00;;;;338684;28;96683;-91
2021/10/20 00:14:52;;;;;;;;;;;16.40;99.90;16.60;100041.00;;;;340821;28;82494;-91
2021/10/20 00:15:05;;;;;;;;;;;16.30;99.90;16.60;100041.00;;;;337278;28;96248;-90
2021/10/20 00:15:19;;;;;;;;;;;16.40;99.90;16.50;100039.00;;;;339315;28;82661;-91
2021/10/20 00:15:31;;;;;;;;;;;16.30;99.90;16.50;100040.00;;;;339766;28;95805;-90
2021/10/20 00:15:43;;;;;;;;;;;16.30;99.90;16.60;100038.00;;;;341743;28;83668;-91
2021/10/20 00:15:55;;;;;;;;;;;16.40;99.90;16.60;100031.00;;;;338454;28;95522;-91
2021/10/20 00:16:06;;;;;;;;;;;16.40;99.90;16.60;100028.00;;;;339066;28;83455;-90
2021/10/20 00:16:18;;;;;;;;;;;16.40;99.90;16.60;100039.00;;;;339911;28;94611;-91
2021/10/20 00:16:30;;;;;;;;;;;16.40;99.90;16.50;100035.00;;;;341948;28;83478;-90
2021/10/20 00:16:42;;;;;;;;;;;16.40;99.90;16.60;100036.00;;;;341280;28;96614;-90
2021/10/20 00:16:55;;;;;;;;;;;16.40;99.90;16.70;100030.00;;;;339298;28;83397;-91
2021/10/20 00:17:07;;;;;;;;;;;16.40;99.90;16.70;100038.00;;;;337356;28;95638;-91
2021/10/20 00:17:19;;;;;;;;;;;16.40;99.90;16.60;100033.00;;;;339546;28;82564;-90
2021/10/20 00:17:32;;;;;;;;;;;16.40;99.90;16.60;100033.00;;;;341284;28;96210;-90
2021/10/20 00:17:44;;;;;;;;;;;16.40;99.90;16.60;100033.00;;;;338005;28;82568;-90
2021/10/20 00:17:55;;;;;;;;;;;16.40;99.90;16.60;100034.00;;;;338434;28;96567;-91
2021/10/20 00:18:07;;;;;;;;;;;16.40;99.90;16.60;100036.00;;;;339287;28;82690;-91
2021/10/20 00:18:19;;;;;;;;;;;16.40;99.90;16.50;100026.00;;;;338458;28;94503;-91
2021/10/20 00:18:31;;;;;;;;;;;16.40;99.90;16.50;100030.00;;;;340460;28;83417;-91
2021/10/20 00:18:49;;;;;;;;;;;16.40;99.90;16.60;100040.00;;;;336980;28;95661;-91
2021/10/20 00:19:01;;;;;;;;;;;16.40;99.90;16.50;100041.00;;;;339060;28;82555;-90
2021/10/20 00:19:13;;;;;;;;;;;16.40;99.90;16.60;100027.00;;;;338384;28;95737;-90
2021/10/20 00:19:25;;;;;;;;;;;16.40;99.90;16.70;100034.00;;;;337977;28;83603;-91
2021/10/20 00:19:37;;;;;;;;;;;16.40;99.90;16.60;100035.00;;;;339839;28;96553;-91
2021/10/20 00:19:54;;;;;;;;;;;16.40;99.90;16.60;100039.00;;;;339513;28;83372;-91
2021/10/20 00:20:11;;;;;;;;;;;16.40;99.90;16.60;100027.00;;;;339569;28;95427;-91
2021/10/20 00:20:26;;;;;;;;;;;16.40;99.90;16.70;100034.00;;;;339542;28;82532;-90
2021/10/20 00:20:38;;;;;;;;;;;16.40;99.90;16.70;100029.00;;;;339733;28;95501;-90
2021/10/20 00:20:51;;;;;;;;;;;16.40;99.90;16.70;100033.00;;;;339225;28;82588;-90
2021/10/20 00:21:05;;;;;;;;;;;16.40;99.90;16.60;100027.00;;;;337154;28;95584;-90
2021/10/20 00:21:25;;;;;;;;;;;16.40;99.90;16.60;100025.00;;;;338168;28;83386;-90
2021/10/20 00:21:36;;;;;;;;;;;16.40;99.90;16.70;100021.00;;;;339820;28;95633;-91
2021/10/20 00:21:48;;;;;;;;;;;16.40;99.90;16.60;100026.00;;;;339493;28;83346;-91
2021/10/20 00:22:00;;;;;;;;;;;16.50;99.90;16.60;100026.00;;;;338694;28;95873;-91
2021/10/20 00:22:12;;;;;;;;;;;16.50;99.90;16.70;100029.00;;;;341481;28;82592;-91
2021/10/20 00:22:24;;;;;;;;;;;16.50;99.90;16.70;100029.00;;;;339981;28;96940;-91
2021/10/20 00:22:37;;;;;;;;;;;16.50;99.90;16.70;100024.00;;;;340799;28;82591;-91
2021/10/20 00:22:49;;;;;;;;;;;16.40;99.90;16.70;100025.00;;;;338525;28;96796;-91
2021/10/20 00:23:01;;;;;;;;;;;16.50;99.90;16.70;100038.00;;;;340760;28;83495;-91
2021/10/20 00:23:13;;;;;;;;;;;16.40;99.90;16.70;100021.00;;;;339783;28;95948;-91
2021/10/20 00:23:25;;;;;;;;;;;16.40;99.90;16.60;100031.00;;;;340826;28;82434;-90
2021/10/20 00:23:37;;;;;;;;;;;16.40;99.90;16.70;100023.00;;;;341211;28;95733;-90
2021/10/20 00:23:49;;;;;;;;;;;16.50;99.90;16.70;100020.00;;;;339319;28;82633;-90
2021/10/20 00:24:01;;;;;;;;;;;16.40;99.90;16.60;100026.00;;;;341247;28;95509;-91
2021/10/20 00:24:13;;;;;;;;;;;16.40;99.90;16.60;100021.00;;;;341932;28;82592;-90
2021/10/20 00:24:24;;;;;;;;;;;16.40;99.90;16.60;100021.00;;;;339924;28;96225;-91
2021/10/20 00:24:36;;;;;;;;;;;16.40;99.90;16.60;100026.00;;;;340571;28;83552;-90
2021/10/20 00:24:48;;;;;;;;;;;16.40;99.90;16.60;100027.00;;;;338600;28;95649;-90
2021/10/20 00:25:00;;;;;;;;;;;16.40;99.90;16.70;100026.00;;;;340770;28;83321;-91
2021/10/20 00:25:12;;;;;;;;;;;16.40;99.90;16.70;100022.00;;;;341299;28;96441;-90
2021/10/20 00:25:23;;;;;;;;;;;16.40;99.90;16.70;100021.00;;;;340630;28;82566;-91
2021/10/20 00:25:35;;;;;;;;;;;16.40;99.90;16.70;100017.00;;;;341153;28;94756;-91
2021/10/20 00:25:47;;;;;;;;;;;16.50;99.90;16.70;100026.00;;;;339467;28;82448;-90
2021/10/20 00:25:59;;;;;;;;;;;16.50;99.90;16.70;100018.00;;;;341126;28;95620;-90
2021/10/20 00:26:11;;;;;;;;;;;16.50;99.90;16.70;100021.00;;;;340711;28;82574;-90
2021/10/20 00:26:23;;;;;;;;;;;16.50;99.90;16.70;100019.00;;;;337026;28;96701;-90
2021/10/20 00:26:35;;;;;;;;;;;16.50;99.90;16.70;100014.00;;;;340484;28;83420;-90
2021/10/20 00:26:46;;;;;;;;;;;16.50;99.90;16.70;100028.00;;;;339822;28;94603;-91
2021/10/20 00:26:58;;;;;;;;;;;16.50;99.90;16.70;100013.00;;;;340502;28;83508;-91
2021/10/20 00:27:10;;;;;;;;;;;16.50;99.90;16.70;100025.00;;;;339718;28;94467;-91
2021/10/20 00:27:22;;;;;;;;;;;16.50;99.90;16.70;100016.00;;;;339264;28;83519;-90
2021/10/20 00:27:33;;;;;;;;;;;16.50;99.90;16.70;100022.00;;;;337120;28;95065;-91
2021/10/20 00:27:45;;;;;;;;;;;16.50;99.90;16.70;100018.00;;;;340799;28;83566;-89
2021/10/20 00:27:57;;;;;;;;;;;16.50;99.90;16.70;100020.00;;;;339922;28;94855;-91
2021/10/20 00:28:09;;;;;;;;;;;16.50;99.90;16.60;100008.00;;;;340752;28;83417;-90
2021/10/20 00:28:21;;;;;;;;;;;16.50;99.90;16.70;100021.00;;;;339670;28;96546;-91
2021/10/20 00:28:33;;;;;;;;;;;16.50;99.90;16.70;100024.00;;;;339220;28;83562;-90
2021/10/20 00:28:45;;;;;;;;;;;16.50;99.90;16.70;100018.00;;;;340062;28;96343;-91
2021/10/20 00:28:57;;;;;;;;;;;16.50;99.90;16.70;100013.00;;;;340562;28;82633;-90
2021/10/20 00:29:08;;;;;;;;;;;16.50;99.90;16.70;100009.00;;;;339061;28;95373;-91
2021/10/20 00:29:20;;;;;;;;;;;16.50;99.90;16.70;100014.00;;;;340756;28;83465;-90
2021/10/20 00:29:32;;;;;;;;;;;16.50;99.90;16.70;100021.00;;;;339941;28;95535;-91
2021/10/20 00:29:44;;;;;;;;;;;16.50;99.90;16.70;100020.00;;;;340434;28;83511;-91
2021/10/20 00:29:56;;;;;;;;;;;16.50;99.90;16.70;100024.00;;;;338431;28;95291;-90
2021/10/20 00:30:08;;;;;;;;;;;16.50;99.90;16.60;100021.00;;;;339223;28;82684;-91
2021/10/20 00:30:19;;;;;;;;;;;16.40;99.90;16.60;100015.00;;;;341077;28;95115;-90
2021/10/20 00:30:31;;;;;;;;;;;16.50;99.90;16.70;100009.00;;;;340849;28;83352;-91
2021/10/20 00:30:43;;;;;;;;;;;16.50;99.90;16.70;100021.00;;;;339450;28;95456;-91
2021/10/20 00:30:55;;;;;;;;;;;16.50;99.90;16.70;100020.00;;;;338037;28;82476;-92
2021/10/20 00:31:07;;;;;;;;;;;16.50;99.90;16.70;100010.00;;;;338302;28;96144;-91
2021/10/20 00:31:19;;;;;;;;;;;16.50;99.90;16.70;100015.00;;;;340642;28;82497;-91
2021/10/20 00:31:31;;;;;;;;;;;16.50;99.90;16.60;100013.00;;;;339772;28;96029;-90
2021/10/20 00:31:43;;;;;;;;;;;16.50;99.90;16.60;100020.00;;;;339391;28;82421;-91
2021/10/20 00:31:55;;;;;;;;;;;16.40;99.90;16.60;100013.00;;;;341202;28;95582;-91
2021/10/20 00:32:06;;;;;;;;;;;16.50;99.90;16.60;100018.00;;;;340812;28;83381;-91
2021/10/20 00:32:18;;;;;;;;;;;16.40;99.90;16.60;100018.00;;;;339910;28;97621;-91
2021/10/20 00:32:30;;;;;;;;;;;16.40;99.90;16.60;100011.00;;;;342164;28;82488;-91
2021/10/20 00:32:43;;;;;;;;;;;16.50;99.90;16.60;100020.00;;;;339823;28;95637;-91
2021/10/20 00:32:55;;;;;;;;;;;16.40;99.90;16.60;100019.00;;;;340766;28;83484;-91
2021/10/20 00:33:06;;;;;;;;;;;16.40;99.90;16.60;100016.00;;;;339876;28;95503;-90
2021/10/20 00:33:18;;;;;;;;;;;16.40;99.90;16.60;100013.00;;;;340589;28;83474;-91
2021/10/20 00:33:30;;;;;;;;;;;16.40;99.90;16.60;100006.00;;;;338594;28;95425;-91
2021/10/20 00:33:42;;;;;;;;;;;16.40;99.90;16.60;100017.00;;;;339016;28;83594;-90
2021/10/20 00:33:53;;;;;;;;;;;16.40;99.90;16.60;100018.00;;;;339714;28;95635;-90
2021/10/20 00:34:05;;;;;;;;;;;16.40;99.90;16.60;100012.00;;;;341964;28;83421;-91
2021/10/20 00:34:17;;;;;;;;;;;16.40;99.90;16.60;100010.00;;;;338525;28;96673;-90
2021/10/20 00:34:29;;;;;;;;;;;16.40;99.90;16.60;100005.00;;;;341982;28;83664;-90
2021/10/20 00:34:41;;;;;;;;;;;16.40;99.90;16.60;100013.00;;;;338576;28;96569;-91
2021/10/20 00:34:52;;;;;;;;;;;16.40;99.90;16.60;100011.00;;;;339296;28;82527;-91
2021/10/20 00:35:05;;;;;;;;;;;16.40;99.90;16.70;100012.00;;;;338701;28;97173;-90
2021/10/20 00:35:16;;;;;;;;;;;16.40;99.90;16.70;100013.00;;;;339493;28;83333;-91
2021/10/20 00:35:28;;;;;;;;;;;16.40;99.90;16.70;100015.00;;;;341423;28;94509;-91
2021/10/20 00:35:40;;;;;;;;;;;16.40;99.90;16.70;100016.00;;;;342197;28;83421;-91
2021/10/20 00:35:52;;;;;;;;;;;16.40;99.90;16.70;100000.00;;;;339749;28;95680;-90
2021/10/20 00:36:04;;;;;;;;;;;16.40;99.90;16.70;100002.00;;;;339574;28;83406;-91
2021/10/20 00:36:16;;;;;;;;;;;16.40;99.90;16.70;100006.00;;;;339874;28;97976;-90
2021/10/20 00:36:28;;;;;;;;;;;16.40;99.90;16.70;100003.00;;;;339353;28;82647;-90
2021/10/20 00:36:39;;;;;;;;;;;16.40;99.90;16.70;100001.00;;;;339307;28;95312;-91
2021/10/20 00:36:51;;;;;;;;;;;16.50;99.90;16.70;100004.00;;;;339370;28;83515;-91
2021/10/20 00:37:03;;;;;;;;;;;16.50;99.90;16.80;100007.00;;;;339817;28;95484;-90
2021/10/20 00:37:15;;;;;;;;;;;16.50;99.90;16.70;100009.00;;;;340733;28;83524;-91
2021/10/20 00:37:26;;;;;;;;;;;16.50;99.90;16.70;100001.00;;;;340007;28;96546;-91
2021/10/20 00:37:38;;;;;;;;;;;16.50;99.90;16.70;100000.00;;;;339505;28;83410;-91
2021/10/20 00:37:50;;;;;;;;;;;16.50;99.90;16.70;99999.00;;;;340099;28;95651;-90
2021/10/20 00:38:02;;;;;;;;;;;16.50;99.90;16.70;99994.00;;;;338235;28;83359;-90
2021/10/20 00:38:14;;;;;;;;;;;16.50;99.90;16.70;99991.00;;;;339755;28;96208;-90
2021/10/20 00:38:26;;;;;;;;;;;16.50;99.90;16.70;100008.00;;;;340697;28;82695;-91
2021/10/20 00:38:38;;;;;;;;;;;16.50;99.90;16.70;100004.00;;;;338471;28;95675;-90
2021/10/20 00:38:50;;;;;;;;;;;16.50;99.90;16.70;99993.00;;;;340658;28;83522;-91
2021/10/20 00:39:01;;;;;;;;;;;16.50;99.90;16.70;100005.00;;;;339849;28;95622;-90
2021/10/20 00:39:13;;;;;;;;;;;16.50;99.90;16.60;99995.00;;;;340619;28;83526;-91
2021/10/20 00:39:25;;;;;;;;;;;16.50;99.90;16.70;99998.00;;;;340898;28;94708;-91
2021/10/20 00:39:37;;;;;;;;;;;16.50;99.90;16.70;100000.00;;;;337187;28;82487;-91
2021/10/20 00:39:48;;;;;;;;;;;16.50;99.90;16.70;100002.00;;;;338438;28;96713;-90
2021/10/20 00:40:00;;;;;;;;;;;16.50;99.90;16.70;99999.00;;;;338103;28;83916;-90
2021/10/20 00:40:12;;;;;;;;;;;16.40;99.90;16.70;99989.00;;;;337311;28;96326;-91
2021/10/20 00:40:24;;;;;;;;;;;16.50;99.90;16.70;99997.00;;;;340761;28;83298;-91
2021/10/20 00:40:36;;;;;;;;;;;16.50;99.90;16.80;100005.00;;;;337408;28;95862;-91
2021/10/20 00:40:50;;;;;;;;;;;16.50;99.90;16.80;99998.00;;;;339487;28;83286;-90
2021/10/20 00:41:02;;;;;;;;;;;16.50;99.90;16.80;100001.00;;;;339976;28;96835;-90
2021/10/20 00:41:14;;;;;;;;;;;16.50;99.90;16.70;99991.00;;;;339507;28;83442;-90
2021/10/20 00:41:29;;;;;;;;;;;16.50;99.90;16.70;99999.00;;;;338725;28;96379;-90
2021/10/20 00:41:40;;;;;;;;;;;16.50;99.90;16.70;100003.00;;;;336819;28;83428;-90
2021/10/20 00:41:52;;;;;;;;;;;16.50;99.90;16.70;99996.00;;;;337299;28;95303;-91
2021/10/20 00:42:04;;;;;;;;;;;16.50;99.90;16.70;99992.00;;;;340712;28;83446;-90
2021/10/20 00:42:19;;;;;;;;;;;16.50;99.90;16.70;99992.00;;;;338581;28;96497;-91
2021/10/20 00:42:31;;;;;;;;;;;16.50;99.90;16.70;99997.00;;;;338130;28;83395;-91
2021/10/20 00:42:43;;;;;;;;;;;16.50;99.90;16.70;99995.00;;;;338532;28;96590;-90
2021/10/20 00:42:55;;;;;;;;;;;16.50;99.90;16.70;99995.00;;;;339962;28;86361;-91
2021/10/20 00:43:06;;;;;;;;;;;16.50;99.90;16.70;99994.00;;;;339825;28;95559;-90
2021/10/20 00:43:19;;;;;;;;;;;16.50;99.90;16.80;99996.00;;;;339512;28;83350;-91
2021/10/20 00:43:31;;;;;;;;;;;16.50;99.90;16.70;99994.00;;;;339869;28;95360;-90
2021/10/20 00:43:43;;;;;;;;;;;16.50;99.90;16.80;100005.00;;;;339237;28;83666;-91
2021/10/20 00:43:56;;;;;;;;;;;16.50;99.90;16.80;100004.00;;;;341075;28;95689;-90
2021/10/20 00:44:08;;;;;;;;;;;16.50;99.90;16.80;99999.00;;;;340623;28;82519;-90
2021/10/20 00:44:20;;;;;;;;;;;16.50;99.90;16.80;100004.00;;;;339962;28;95928;-91
2021/10/20 00:44:48;;;;;;;;;;;16.50;99.90;16.80;99997.00;;;;339382;28;82548;-90
2021/10/20 00:45:00;;;;;;;;;;;16.50;99.90;16.70;99997.00;;;;337378;28;94056;-90
2021/10/20 00:45:13;;;;;;;;;;;16.50;99.90;16.70;99998.00;;;;339448;28;82550;-90
2021/10/20 00:45:24;;;;;;;;;;;16.50;99.90;16.70;99986.00;;;;338750;28;95384;-90
2021/10/20 00:45:36;;;;;;;;;;;16.50;99.90;16.70;99994.00;;;;340495;28;83418;-90
2021/10/20 00:45:48;;;;;;;;;;;16.50;99.90;16.70;99997.00;;;;339817;28;95745;-90
2021/10/20 00:46:00;;;;;;;;;;;16.50;99.90;16.70;100001.00;;;;339454;28;83446;-91
2021/10/20 00:46:12;;;;;;;;;;;16.50;99.90;16.70;99989.00;;;;339738;28;95434;-90
2021/10/20 00:46:33;;;;;;;;;;;16.50;99.90;16.80;99994.00;;;;339143;28;82577;-90
2021/10/20 00:46:45;;;;;;;;;;;16.50;99.90;16.80;100000.00;;;;339941;28;96691;-91
2021/10/20 00:46:57;;;;;;;;;;;16.50;99.90;16.70;100003.00;;;;341229;28;82566;-91
2021/10/20 00:47:08;;;;;;;;;;;16.50;99.90;16.80;99997.00;;;;340081;28;94831;-90
2021/10/20 00:47:21;;;;;;;;;;;16.50;99.90;16.80;100002.00;;;;342213;28;82569;-90
2021/10/20 00:47:33;;;;;;;;;;;16.50;99.90;16.80;99989.00;;;;340180;28;94493;-90
2021/10/20 00:47:45;;;;;;;;;;;16.50;99.90;16.70;99996.00;;;;340893;28;82246;-91
2021/10/20 00:47:56;;;;;;;;;;;16.50;99.90;16.70;99993.00;;;;341715;28;94788;-90
2021/10/20 00:48:08;;;;;;;;;;;16.50;99.90;16.70;99988.00;;;;342401;28;82515;-90
2021/10/20 00:48:20;;;;;;;;;;;16.50;99.90;16.70;99992.00;;;;341519;28;95518;-91
2021/10/20 00:48:32;;;;;;;;;;;16.50;99.90;16.70;99992.00;;;;342310;28;83250;-90
2021/10/20 00:48:44;;;;;;;;;;;16.50;99.90;16.80;99980.00;;;;342145;28;96756;-91
2021/10/20 00:48:56;;;;;;;;;;;16.50;99.90;16.80;99992.00;;;;340905;28;82534;-91
2021/10/20 00:49:07;;;;;;;;;;;16.50;99.90;16.70;99991.00;;;;341082;28;94773;-89
2021/10/20 00:49:19;;;;;;;;;;;16.50;99.90;16.70;99989.00;;;;343609;28;82595;-91
2021/10/20 00:49:31;;;;;;;;;;;16.50;99.90;16.70;99996.00;;;;340112;28;94740;-90
2021/10/20 00:49:43;;;;;;;;;;;16.50;99.90;16.70;99992.00;;;;340383;28;82629;-90
2021/10/20 00:49:55;;;;;;;;;;;16.50;99.90;16.70;99998.00;;;;338987;28;94881;-92
2021/10/20 00:50:09;;;;;;;;;;;16.50;99.90;16.70;99990.00;;;;342289;28;82497;-91
2021/10/20 00:50:21;;;;;;;;;;;16.50;99.90;16.70;99989.00;;;;344416;28;96816;-90
2021/10/20 00:50:33;;;;;;;;;;;16.50;99.90;16.70;99983.00;;;;345067;28;82475;-91
2021/10/20 00:50:45;;;;;;;;;;;16.50;99.90;16.70;99988.00;;;;341522;28;96725;-91
2021/10/20 00:50:57;;;;;;;;;;;16.50;99.90;16.70;99983.00;;;;343534;28;82439;-91
2021/10/20 00:51:08;;;;;;;;;;;16.50;99.90;16.70;99991.00;;;;342867;28;96092;-90
2021/10/20 00:51:25;;;;;;;;;;;16.50;99.90;16.70;99993.00;;;;342559;28;82499;-90
2021/10/20 00:51:37;;;;;;;;;;;16.50;99.90;16.80;99992.00;;;;342228;28;94422;-90
2021/10/20 00:51:48;;;;;;;;;;;16.50;99.90;16.70;99993.00;;;;344240;28;83109;-90
2021/10/20 00:52:00;;;;;;;;;;;16.50;99.90;16.70;99983.00;;;;341293;28;94562;-91
2021/10/20 00:52:12;;;;;;;;;;;16.50;99.90;16.70;99990.00;;;;343008;28;82686;-91
2021/10/20 00:52:25;;;;;;;;;;;16.50;99.90;16.70;99982.00;;;;340071;28;95664;-91
2021/10/20 00:52:37;;;;;;;;;;;16.50;99.90;16.70;99989.00;;;;343789;28;82408;-91
2021/10/20 00:52:48;;;;;;;;;;;16.50;99.90;16.70;99983.00;;;;345685;27;96482;-91
2021/10/20 00:53:00;;;;;;;;;;;16.50;99.90;16.60;99990.00;;;;342408;28;82518;-90
2021/10/20 00:53:12;;;;;;;;;;;16.50;99.90;16.70;99987.00;;;;340296;28;95293;-90
2021/10/20 00:53:24;;;;;;;;;;;16.50;99.90;16.70;99991.00;;;;342365;28;82642;-91
2021/10/20 00:53:36;;;;;;;;;;;16.50;99.90;16.70;99994.00;;;;340418;28;96874;-90
2021/10/20 00:53:48;;;;;;;;;;;16.50;99.90;16.70;99985.00;;;;342451;28;82903;-91
2021/10/20 00:54:00;;;;;;;;;;;16.50;99.90;16.70;99992.00;;;;341393;28;95287;-90
2021/10/20 00:54:12;;;;;;;;;;;16.50;99.90;16.60;99986.00;;;;342224;28;82545;-91
2021/10/20 00:54:24;;;;;;;;;;;16.50;99.90;16.70;99993.00;;;;341492;28;95554;-90
2021/10/20 00:54:36;;;;;;;;;;;16.50;99.90;16.70;99997.00;;;;342293;28;82480;-91
2021/10/20 00:54:53;;;;;;;;;;;16.40;99.90;16.60;99991.00;;;;341465;28;96472;-91
2021/10/20 00:55:05;;;;;;;;;;;16.40;99.90;16.60;99993.00;;;;340936;28;83589;-91
2021/10/20 00:55:17;;;;;;;;;;;16.40;99.90;16.70;99996.00;;;;341227;28;94578;-91
2021/10/20 00:55:29;;;;;;;;;;;16.40;99.90;16.60;99995.00;;;;342226;28;82469;-91
2021/10/20 00:55:41;;;;;;;;;;;16.40;99.90;16.70;99988.00;;;;341113;28;95500;-91
2021/10/20 00:55:53;;;;;;;;;;;16.40;99.90;16.60;99994.00;;;;340289;28;82559;-90
2021/10/20 00:56:05;;;;;;;;;;;16.40;99.90;16.60;99999.00;;;;342094;28;95516;-91
2021/10/20 00:56:16;;;;;;;;;;;16.50;99.90;16.60;99997.00;;;;341101;28;82617;-91
2021/10/20 00:56:28;;;;;;;;;;;16.40;99.90;16.70;99990.00;;;;340368;28;97049;-91
2021/10/20 00:56:40;;;;;;;;;;;16.50;99.90;16.70;99993.00;;;;342528;28;82335;-91
2021/10/20 00:56:52;;;;;;;;;;;16.40;99.90;16.70;100000.00;;;;342494;28;96682;-91
2021/10/20 00:57:04;;;;;;;;;;;16.40;99.90;16.80;99992.00;;;;339220;28;83427;-91
2021/10/20 00:57:16;;;;;;;;;;;16.50;99.90;16.70;99996.00;;;;339715;28;96394;-91
2021/10/20 00:57:28;;;;;;;;;;;16.50;99.90;16.70;100004.00;;;;339448;28;83470;-90
2021/10/20 00:57:40;;;;;;;;;;;16.50;99.90;16.70;99986.00;;;;339990;28;91663;-91
2021/10/20 00:57:52;;;;;;;;;;;16.50;99.90;16.70;99987.00;;;;340575;28;83543;-90
2021/10/20 00:58:04;;;;;;;;;;;16.50;99.90;16.70;99984.00;;;;339672;28;95625;-90
2021/10/20 00:58:16;;;;;;;;;;;16.50;99.90;16.80;99992.00;;;;340504;28;82698;-91
2021/10/20 00:58:28;;;;;;;;;;;16.50;99.90;16.80;99990.00;;;;341118;28;96819;-91
2021/10/20 00:58:40;;;;;;;;;;;16.50;99.90;16.80;99988.00;;;;339134;28;83543;-91
2021/10/20 00:58:51;;;;;;;;;;;16.50;99.90;16.80;100003.00;;;;341004;28;95674;-91
2021/10/20 00:59:03;;;;;;;;;;;16.50;99.90;16.80;99996.00;;;;339488;28;82458;-90
2021/10/20 00:59:15;;;;;;;;;;;16.50;99.90;16.80;100003.00;;;;339807;28;94797;-91
2021/10/20 00:59:27;;;;;;;;;;;16.50;99.90;16.80;99992.00;;;;340590;28;83401;-91
2021/10/20 00:59:39;;;;;;;;;;;16.50;99.90;16.70;99990.00;;;;336010;28;95292;-90
2021/10/20 00:59:51;;;;;;;;;;;16.50;99.90;16.70;99994.00;;;;340856;28;82483;-91